sensor_id;sensor_type;location;lat;lon;timestamp;temperature;humidity
15705;DHT22;7952;48.396;12.806;2022-07-06T00:00:48;20.50;51.40
15705;DHT22;7952;48.396;12.806;2022-07-06T00:03:13;20.50;51.40
15705;DHT22;7952;48.396;12.806;2022-07-06T00:05:39;20.40;51.30
15705;DHT22;7952;48.396;12.806;2022-07-06T00:08:05;20.40;51.40
15705;DHT22;7952;48.396;12.806;2022-07-06T00:10:31;20.30;51.30
15705;DHT22;7952;48.396;12.806;2022-07-06T00:12:56;20.30;51.40
15705;DHT22;7952;48.396;12.806;2022-07-06T00:15:22;20.20;51.30
15705;DHT22;7952;48.396;12.806;2022-07-06T00:17:48;20.20;51.40
15705;DHT22;7952;48.396;12.806;2022-07-06T00:20:13;20.20;51.40
15705;DHT22;7952;48.396;12.806;2022-07-06T00:22:39;20.10;51.40
15705;DHT22;7952;48.396;12.806;2022-07-06T00:25:05;20.10;51.40
15705;DHT22;7952;48.396;12.806;2022-07-06T00:27:31;20.00;51.40
15705;DHT22;7952;48.396;12.806;2022-07-06T00:29:56;20.00;51.40
15705;DHT22;7952;48.396;12.806;2022-07-06T00:32:22;20.00;51.40
15705;DHT22;7952;48.396;12.806;2022-07-06T00:34:47;19.90;51.40
15705;DHT22;7952;48.396;12.806;2022-07-06T00:37:13;19.90;51.50
15705;DHT22;7952;48.396;12.806;2022-07-06T00:39:40;19.90;51.50
15705;DHT22;7952;48.396;12.806;2022-07-06T00:42:06;19.80;51.40
15705;DHT22;7952;48.396;12.806;2022-07-06T00:44:32;19.80;51.50
15705;DHT22;7952;48.396;12.806;2022-07-06T00:46:58;19.70;51.50
15705;DHT22;7952;48.396;12.806;2022-07-06T00:49:24;19.70;51.50
15705;DHT22;7952;48.396;12.806;2022-07-06T00:52:09;19.70;51.60
15705;DHT22;7952;48.396;12.806;2022-07-06T00:54:35;19.60;51.50
15705;DHT22;7952;48.396;12.806;2022-07-06T00:57:01;19.60;51.60
15705;DHT22;7952;48.396;12.806;2022-07-06T00:59:27;19.60;51.70
15705;DHT22;7952;48.396;12.806;2022-07-06T01:01:53;19.50;51.60
15705;DHT22;7952;48.396;12.806;2022-07-06T01:04:19;19.40;51.50
15705;DHT22;7952;48.396;12.806;2022-07-06T01:06:47;19.50;51.70
15705;DHT22;7952;48.396;12.806;2022-07-06T01:09:13;19.40;51.60
15705;DHT22;7952;48.396;12.806;2022-07-06T01:11:39;19.40;51.60
15705;DHT22;7952;48.396;12.806;2022-07-06T01:14:05;19.40;51.70
15705;DHT22;7952;48.396;12.806;2022-07-06T01:16:31;19.40;51.70
15705;DHT22;7952;48.396;12.806;2022-07-06T01:18:57;19.30;51.60
15705;DHT22;7952;48.396;12.806;2022-07-06T01:21:22;19.30;51.70
15705;DHT22;7952;48.396;12.806;2022-07-06T01:23:48;19.30;51.60
15705;DHT22;7952;48.396;12.806;2022-07-06T01:26:19;19.30;51.70
15705;DHT22;7952;48.396;12.806;2022-07-06T01:28:45;19.20;51.60
15705;DHT22;7952;48.396;12.806;2022-07-06T01:31:19;19.30;51.70
15705;DHT22;7952;48.396;12.806;2022-07-06T01:33:45;19.20;51.60
15705;DHT22;7952;48.396;12.806;2022-07-06T01:36:10;19.20;51.60
15705;DHT22;7952;48.396;12.806;2022-07-06T01:38:47;19.10;51.60
15705;DHT22;7952;48.396;12.806;2022-07-06T01:41:13;19.10;51.70
15705;DHT22;7952;48.396;12.806;2022-07-06T01:43:39;19.00;52.20
15705;DHT22;7952;48.396;12.806;2022-07-06T01:46:05;19.00;51.70
15705;DHT22;7952;48.396;12.806;2022-07-06T01:48:30;19.00;51.70
15705;DHT22;7952;48.396;12.806;2022-07-06T01:50:56;18.90;51.60
15705;DHT22;7952;48.396;12.806;2022-07-06T01:53:21;18.90;51.70
15705;DHT22;7952;48.396;12.806;2022-07-06T01:55:47;18.90;51.70
15705;DHT22;7952;48.396;12.806;2022-07-06T01:58:13;18.90;51.70
15705;DHT22;7952;48.396;12.806;2022-07-06T02:00:38;18.90;51.70
15705;DHT22;7952;48.396;12.806;2022-07-06T02:03:04;18.80;51.70
15705;DHT22;7952;48.396;12.806;2022-07-06T02:05:29;18.80;51.70
15705;DHT22;7952;48.396;12.806;2022-07-06T02:07:55;18.80;51.80
15705;DHT22;7952;48.396;12.806;2022-07-06T02:10:20;18.80;51.70
15705;DHT22;7952;48.396;12.806;2022-07-06T02:12:46;18.80;51.70
15705;DHT22;7952;48.396;12.806;2022-07-06T02:15:12;18.90;51.80
15705;DHT22;7952;48.396;12.806;2022-07-06T02:17:37;18.90;51.70
15705;DHT22;7952;48.396;12.806;2022-07-06T02:20:04;19.00;51.70
15705;DHT22;7952;48.396;12.806;2022-07-06T02:22:30;19.00;51.70
15705;DHT22;7952;48.396;12.806;2022-07-06T02:24:56;19.00;51.60
15705;DHT22;7952;48.396;12.806;2022-07-06T02:27:21;19.00;51.60
15705;DHT22;7952;48.396;12.806;2022-07-06T02:29:47;19.10;51.60
15705;DHT22;7952;48.396;12.806;2022-07-06T02:32:12;19.00;51.50
15705;DHT22;7952;48.396;12.806;2022-07-06T02:34:38;19.00;51.50
15705;DHT22;7952;48.396;12.806;2022-07-06T02:37:03;19.00;51.40
15705;DHT22;7952;48.396;12.806;2022-07-06T02:39:29;19.00;51.40
15705;DHT22;7952;48.396;12.806;2022-07-06T02:41:54;19.10;51.50
15705;DHT22;7952;48.396;12.806;2022-07-06T02:44:20;19.10;51.50
15705;DHT22;7952;48.396;12.806;2022-07-06T02:46:45;19.10;51.40
15705;DHT22;7952;48.396;12.806;2022-07-06T02:49:11;19.10;51.40
15705;DHT22;7952;48.396;12.806;2022-07-06T02:51:37;19.10;51.40
15705;DHT22;7952;48.396;12.806;2022-07-06T02:54:02;19.10;51.40
15705;DHT22;7952;48.396;12.806;2022-07-06T02:56:28;19.00;51.40
15705;DHT22;7952;48.396;12.806;2022-07-06T02:58:54;19.00;51.40
15705;DHT22;7952;48.396;12.806;2022-07-06T03:01:19;19.00;51.40
15705;DHT22;7952;48.396;12.806;2022-07-06T03:03:45;19.00;51.50
15705;DHT22;7952;48.396;12.806;2022-07-06T03:06:10;18.90;51.40
15705;DHT22;7952;48.396;12.806;2022-07-06T03:08:36;18.90;51.50
15705;DHT22;7952;48.396;12.806;2022-07-06T03:11:02;18.90;51.50
15705;DHT22;7952;48.396;12.806;2022-07-06T03:13:27;18.80;51.50
15705;DHT22;7952;48.396;12.806;2022-07-06T03:15:54;18.80;51.50
15705;DHT22;7952;48.396;12.806;2022-07-06T03:18:19;18.80;51.60
15705;DHT22;7952;48.396;12.806;2022-07-06T03:20:45;18.70;51.50
15705;DHT22;7952;48.396;12.806;2022-07-06T03:23:11;18.70;51.50
15705;DHT22;7952;48.396;12.806;2022-07-06T03:25:36;18.70;51.60
15705;DHT22;7952;48.396;12.806;2022-07-06T03:28:02;18.60;51.60
15705;DHT22;7952;48.396;12.806;2022-07-06T03:30:27;18.60;51.60
15705;DHT22;7952;48.396;12.806;2022-07-06T03:32:53;18.60;51.60
15705;DHT22;7952;48.396;12.806;2022-07-06T03:35:18;18.60;51.60
15705;DHT22;7952;48.396;12.806;2022-07-06T03:37:44;18.60;51.70
15705;DHT22;7952;48.396;12.806;2022-07-06T03:40:10;18.60;51.70
15705;DHT22;7952;48.396;12.806;2022-07-06T03:42:36;18.60;51.70
15705;DHT22;7952;48.396;12.806;2022-07-06T03:45:03;18.70;51.80
15705;DHT22;7952;48.396;12.806;2022-07-06T03:47:29;18.80;51.80
15705;DHT22;7952;48.396;12.806;2022-07-06T03:49:55;19.00;51.80
15705;DHT22;7952;48.396;12.806;2022-07-06T03:52:21;19.20;51.80
15705;DHT22;7952;48.396;12.806;2022-07-06T03:54:46;19.40;51.70
15705;DHT22;7952;48.396;12.806;2022-07-06T03:57:12;19.60;51.60
15705;DHT22;7952;48.396;12.806;2022-07-06T03:59:39;19.70;51.30
15705;DHT22;7952;48.396;12.806;2022-07-06T04:02:05;19.80;51.30
15705;DHT22;7952;48.396;12.806;2022-07-06T04:04:33;20.00;51.40
15705;DHT22;7952;48.396;12.806;2022-07-06T04:06:59;20.30;51.40
15705;DHT22;7952;48.396;12.806;2022-07-06T04:09:24;20.50;51.30
15705;DHT22;7952;48.396;12.806;2022-07-06T04:11:50;20.80;51.10
15705;DHT22;7952;48.396;12.806;2022-07-06T04:14:16;21.00;51.10
15705;DHT22;7952;48.396;12.806;2022-07-06T04:16:42;21.30;51.10
15705;DHT22;7952;48.396;12.806;2022-07-06T04:19:07;21.60;50.90
15705;DHT22;7952;48.396;12.806;2022-07-06T04:21:33;21.90;50.80
15705;DHT22;7952;48.396;12.806;2022-07-06T04:23:58;22.20;50.70
15705;DHT22;7952;48.396;12.806;2022-07-06T04:26:24;22.50;50.50
15705;DHT22;7952;48.396;12.806;2022-07-06T04:28:49;22.90;50.50
15705;DHT22;7952;48.396;12.806;2022-07-06T04:31:15;23.20;50.30
15705;DHT22;7952;48.396;12.806;2022-07-06T04:33:41;23.50;50.40
15705;DHT22;7952;48.396;12.806;2022-07-06T04:36:09;23.80;50.00
15705;DHT22;7952;48.396;12.806;2022-07-06T04:38:34;24.10;49.90
15705;DHT22;7952;48.396;12.806;2022-07-06T04:41:00;24.40;49.70
15705;DHT22;7952;48.396;12.806;2022-07-06T04:43:25;24.70;49.70
15705;DHT22;7952;48.396;12.806;2022-07-06T04:45:51;25.00;49.50
15705;DHT22;7952;48.396;12.806;2022-07-06T04:48:16;25.20;49.30
15705;DHT22;7952;48.396;12.806;2022-07-06T04:50:42;25.50;49.10
15705;DHT22;7952;48.396;12.806;2022-07-06T04:53:08;25.70;48.90
15705;DHT22;7952;48.396;12.806;2022-07-06T04:55:33;26.00;48.80
15705;DHT22;7952;48.396;12.806;2022-07-06T04:57:59;26.20;48.60
15705;DHT22;7952;48.396;12.806;2022-07-06T05:00:24;26.50;48.50
15705;DHT22;7952;48.396;12.806;2022-07-06T05:02:50;26.70;48.30
15705;DHT22;7952;48.396;12.806;2022-07-06T05:05:16;27.00;48.20
15705;DHT22;7952;48.396;12.806;2022-07-06T05:07:41;27.20;47.40
15705;DHT22;7952;48.396;12.806;2022-07-06T05:10:12;27.40;47.80
15705;DHT22;7952;48.396;12.806;2022-07-06T05:12:38;27.70;47.70
15705;DHT22;7952;48.396;12.806;2022-07-06T05:15:04;27.90;47.50
15705;DHT22;7952;48.396;12.806;2022-07-06T05:17:30;28.10;47.30
15705;DHT22;7952;48.396;12.806;2022-07-06T05:19:56;28.40;47.20
15705;DHT22;7952;48.396;12.806;2022-07-06T05:22:21;28.60;47.10
15705;DHT22;7952;48.396;12.806;2022-07-06T05:24:47;28.80;46.90
15705;DHT22;7952;48.396;12.806;2022-07-06T05:27:12;29.00;46.80
15705;DHT22;7952;48.396;12.806;2022-07-06T05:29:38;29.20;46.60
15705;DHT22;7952;48.396;12.806;2022-07-06T05:32:04;29.40;46.40
15705;DHT22;7952;48.396;12.806;2022-07-06T05:34:29;29.60;46.30
15705;DHT22;7952;48.396;12.806;2022-07-06T05:36:55;29.70;46.20
15705;DHT22;7952;48.396;12.806;2022-07-06T05:39:20;29.90;46.20
15705;DHT22;7952;48.396;12.806;2022-07-06T05:41:48;30.10;46.10
15705;DHT22;7952;48.396;12.806;2022-07-06T05:44:14;30.30;46.00
15705;DHT22;7952;48.396;12.806;2022-07-06T05:46:40;30.50;45.80
15705;DHT22;7952;48.396;12.806;2022-07-06T05:49:06;30.80;45.80
15705;DHT22;7952;48.396;12.806;2022-07-06T05:51:50;31.00;45.60
15705;DHT22;7952;48.396;12.806;2022-07-06T05:54:15;31.30;45.40
15705;DHT22;7952;48.396;12.806;2022-07-06T05:56:41;31.50;45.30
15705;DHT22;7952;48.396;12.806;2022-07-06T05:59:07;31.70;45.10
15705;DHT22;7952;48.396;12.806;2022-07-06T06:01:32;31.90;44.90
15705;DHT22;7952;48.396;12.806;2022-07-06T06:03:58;32.10;44.70
15705;DHT22;7952;48.396;12.806;2022-07-06T06:06:25;32.20;44.60
15705;DHT22;7952;48.396;12.806;2022-07-06T06:08:51;32.40;44.60
15705;DHT22;7952;48.396;12.806;2022-07-06T06:11:16;32.50;44.40
15705;DHT22;7952;48.396;12.806;2022-07-06T06:13:42;32.70;44.20
15705;DHT22;7952;48.396;12.806;2022-07-06T06:16:07;32.80;44.20
15705;DHT22;7952;48.396;12.806;2022-07-06T06:18:33;33.00;44.20
15705;DHT22;7952;48.396;12.806;2022-07-06T06:20:58;33.10;43.90
15705;DHT22;7952;48.396;12.806;2022-07-06T06:23:24;33.20;44.30
15705;DHT22;7952;48.396;12.806;2022-07-06T06:25:49;33.30;43.60
15705;DHT22;7952;48.396;12.806;2022-07-06T06:28:15;33.50;43.60
15705;DHT22;7952;48.396;12.806;2022-07-06T06:30:40;33.60;43.50
15705;DHT22;7952;48.396;12.806;2022-07-06T06:33:17;33.70;43.40
15705;DHT22;7952;48.396;12.806;2022-07-06T06:35:45;33.90;43.20
15705;DHT22;7952;48.396;12.806;2022-07-06T06:38:11;34.00;43.20
15705;DHT22;7952;48.396;12.806;2022-07-06T06:40:37;34.10;43.00
15705;DHT22;7952;48.396;12.806;2022-07-06T06:43:03;34.20;42.90
15705;DHT22;7952;48.396;12.806;2022-07-06T06:45:29;34.40;42.90
15705;DHT22;7952;48.396;12.806;2022-07-06T06:47:55;34.50;42.70
15705;DHT22;7952;48.396;12.806;2022-07-06T06:50:21;34.60;42.60
15705;DHT22;7952;48.396;12.806;2022-07-06T06:52:48;34.70;42.40
15705;DHT22;7952;48.396;12.806;2022-07-06T06:55:13;34.80;42.30
15705;DHT22;7952;48.396;12.806;2022-07-06T06:57:39;34.90;42.20
15705;DHT22;7952;48.396;12.806;2022-07-06T07:00:05;34.90;42.00
15705;DHT22;7952;48.396;12.806;2022-07-06T07:02:31;35.00;42.00
15705;DHT22;7952;48.396;12.806;2022-07-06T07:04:56;35.10;41.80
15705;DHT22;7952;48.396;12.806;2022-07-06T07:07:22;35.10;41.60
15705;DHT22;7952;48.396;12.806;2022-07-06T07:09:47;35.20;41.50
15705;DHT22;7952;48.396;12.806;2022-07-06T07:12:13;35.20;41.40
15705;DHT22;7952;48.396;12.806;2022-07-06T07:14:40;35.30;41.30
15705;DHT22;7952;48.396;12.806;2022-07-06T07:17:06;35.40;41.30
15705;DHT22;7952;48.396;12.806;2022-07-06T07:19:31;35.40;41.10
15705;DHT22;7952;48.396;12.806;2022-07-06T07:21:57;35.40;41.00
15705;DHT22;7952;48.396;12.806;2022-07-06T07:24:23;35.50;40.90
15705;DHT22;7952;48.396;12.806;2022-07-06T07:26:48;35.50;41.40
15705;DHT22;7952;48.396;12.806;2022-07-06T07:29:14;35.60;40.70
15705;DHT22;7952;48.396;12.806;2022-07-06T07:31:39;35.60;40.60
15705;DHT22;7952;48.396;12.806;2022-07-06T07:34:05;35.70;40.50
15705;DHT22;7952;48.396;12.806;2022-07-06T07:36:30;35.70;40.40
15705;DHT22;7952;48.396;12.806;2022-07-06T07:38:56;35.60;40.30
15705;DHT22;7952;48.396;12.806;2022-07-06T07:41:21;35.60;40.30
15705;DHT22;7952;48.396;12.806;2022-07-06T07:43:47;35.60;40.30
15705;DHT22;7952;48.396;12.806;2022-07-06T07:46:13;35.50;40.30
15705;DHT22;7952;48.396;12.806;2022-07-06T07:48:38;35.50;40.30
15705;DHT22;7952;48.396;12.806;2022-07-06T07:51:04;35.40;40.20
15705;DHT22;7952;48.396;12.806;2022-07-06T07:53:29;35.40;40.20
15705;DHT22;7952;48.396;12.806;2022-07-06T07:55:55;35.40;40.20
15705;DHT22;7952;48.396;12.806;2022-07-06T07:58:20;35.30;40.30
15705;DHT22;7952;48.396;12.806;2022-07-06T08:00:46;35.20;40.20
15705;DHT22;7952;48.396;12.806;2022-07-06T08:03:12;35.10;40.30
15705;DHT22;7952;48.396;12.806;2022-07-06T08:05:38;35.00;40.30
15705;DHT22;7952;48.396;12.806;2022-07-06T08:08:03;34.90;40.40
15705;DHT22;7952;48.396;12.806;2022-07-06T08:10:29;34.80;40.40
15705;DHT22;7952;48.396;12.806;2022-07-06T08:12:55;34.70;40.50
15705;DHT22;7952;48.396;12.806;2022-07-06T08:15:21;34.50;40.50
15705;DHT22;7952;48.396;12.806;2022-07-06T08:17:46;34.30;40.60
15705;DHT22;7952;48.396;12.806;2022-07-06T08:20:13;34.20;40.80
15705;DHT22;7952;48.396;12.806;2022-07-06T08:22:38;34.00;40.80
15705;DHT22;7952;48.396;12.806;2022-07-06T08:25:05;34.00;41.10
15705;DHT22;7952;48.396;12.806;2022-07-06T08:27:31;33.80;41.10
15705;DHT22;7952;48.396;12.806;2022-07-06T08:29:56;33.60;41.10
15705;DHT22;7952;48.396;12.806;2022-07-06T08:32:22;33.40;41.40
15705;DHT22;7952;48.396;12.806;2022-07-06T08:34:47;33.10;41.70
15705;DHT22;7952;48.396;12.806;2022-07-06T08:37:13;32.90;42.00
15705;DHT22;7952;48.396;12.806;2022-07-06T08:39:39;32.90;42.10
15705;DHT22;7952;48.396;12.806;2022-07-06T08:42:05;32.70;42.30
15705;DHT22;7952;48.396;12.806;2022-07-06T08:44:33;32.70;42.40
15705;DHT22;7952;48.396;12.806;2022-07-06T08:47:05;32.70;42.50
15705;DHT22;7952;48.396;12.806;2022-07-06T08:49:32;32.60;42.50
15705;DHT22;7952;48.396;12.806;2022-07-06T08:52:00;32.50;42.50
15705;DHT22;7952;48.396;12.806;2022-07-06T08:54:26;32.50;42.60
15705;DHT22;7952;48.396;12.806;2022-07-06T08:56:53;32.40;42.70
15705;DHT22;7952;48.396;12.806;2022-07-06T08:59:18;32.40;42.80
15705;DHT22;7952;48.396;12.806;2022-07-06T09:01:45;32.30;42.70
15705;DHT22;7952;48.396;12.806;2022-07-06T09:04:13;32.30;42.80
15705;DHT22;7952;48.396;12.806;2022-07-06T09:06:42;32.20;42.80
15705;DHT22;7952;48.396;12.806;2022-07-06T09:09:09;32.20;42.90
15705;DHT22;7952;48.396;12.806;2022-07-06T09:11:35;32.10;42.90
15705;DHT22;7952;48.396;12.806;2022-07-06T09:14:03;32.00;42.80
15705;DHT22;7952;48.396;12.806;2022-07-06T09:16:29;32.00;43.00
15705;DHT22;7952;48.396;12.806;2022-07-06T09:18:55;31.90;43.00
15705;DHT22;7952;48.396;12.806;2022-07-06T09:21:31;31.80;42.90
15705;DHT22;7952;48.396;12.806;2022-07-06T09:23:59;31.70;43.00
15705;DHT22;7952;48.396;12.806;2022-07-06T09:26:25;31.60;43.20
15705;DHT22;7952;48.396;12.806;2022-07-06T09:28:52;31.60;43.30
15705;DHT22;7952;48.396;12.806;2022-07-06T09:31:19;31.60;43.30
15705;DHT22;7952;48.396;12.806;2022-07-06T09:34:05;31.60;43.30
15705;DHT22;7952;48.396;12.806;2022-07-06T09:36:48;31.50;43.30
15705;DHT22;7952;48.396;12.806;2022-07-06T09:39:25;31.50;43.30
15705;DHT22;7952;48.396;12.806;2022-07-06T09:41:59;31.50;43.40
15705;DHT22;7952;48.396;12.806;2022-07-06T09:44:27;31.50;43.20
15705;DHT22;7952;48.396;12.806;2022-07-06T09:46:55;31.50;43.20
15705;DHT22;7952;48.396;12.806;2022-07-06T09:49:22;31.50;43.20
15705;DHT22;7952;48.396;12.806;2022-07-06T09:51:50;31.50;43.60
15705;DHT22;7952;48.396;12.806;2022-07-06T09:54:16;31.50;43.20
15705;DHT22;7952;48.396;12.806;2022-07-06T09:56:43;31.50;43.20
15705;DHT22;7952;48.396;12.806;2022-07-06T09:59:15;31.50;43.20
15705;DHT22;7952;48.396;12.806;2022-07-06T10:01:41;31.50;43.30
15705;DHT22;7952;48.396;12.806;2022-07-06T10:04:09;31.60;43.30
15705;DHT22;7952;48.396;12.806;2022-07-06T10:06:35;31.60;43.20
15705;DHT22;7952;48.396;12.806;2022-07-06T10:09:02;31.70;43.20
15705;DHT22;7952;48.396;12.806;2022-07-06T10:11:30;31.70;43.20
15705;DHT22;7952;48.396;12.806;2022-07-06T10:14:01;31.80;43.10
15705;DHT22;7952;48.396;12.806;2022-07-06T10:16:28;31.90;43.00
15705;DHT22;7952;48.396;12.806;2022-07-06T10:18:54;32.00;43.00
15705;DHT22;7952;48.396;12.806;2022-07-06T10:21:24;32.00;42.90
15705;DHT22;7952;48.396;12.806;2022-07-06T10:23:51;31.90;42.90
15705;DHT22;7952;48.396;12.806;2022-07-06T10:26:18;31.90;42.90
15705;DHT22;7952;48.396;12.806;2022-07-06T10:28:44;31.90;42.80
15705;DHT22;7952;48.396;12.806;2022-07-06T10:31:13;31.90;42.80
15705;DHT22;7952;48.396;12.806;2022-07-06T10:33:40;31.90;42.80
15705;DHT22;7952;48.396;12.806;2022-07-06T10:36:07;31.90;42.80
15705;DHT22;7952;48.396;12.806;2022-07-06T10:38:34;31.80;42.80
15705;DHT22;7952;48.396;12.806;2022-07-06T10:41:05;31.70;42.80
15705;DHT22;7952;48.396;12.806;2022-07-06T10:45:58;31.60;42.90
15705;DHT22;7952;48.396;12.806;2022-07-06T10:48:24;31.60;43.00
15705;DHT22;7952;48.396;12.806;2022-07-06T10:50:51;31.50;42.80
15705;DHT22;7952;48.396;12.806;2022-07-06T10:53:21;31.50;43.00
15705;DHT22;7952;48.396;12.806;2022-07-06T10:55:49;31.50;43.20
15705;DHT22;7952;48.396;12.806;2022-07-06T11:01:03;31.60;43.00
15705;DHT22;7952;48.396;12.806;2022-07-06T11:06:08;31.50;42.80
15705;DHT22;7952;48.396;12.806;2022-07-06T11:08:45;31.50;42.80
15705;DHT22;7952;48.396;12.806;2022-07-06T11:13:51;31.30;43.00
15705;DHT22;7952;48.396;12.806;2022-07-06T11:16:17;31.30;43.00
15705;DHT22;7952;48.396;12.806;2022-07-06T11:21:50;31.00;43.00
15705;DHT22;7952;48.396;12.806;2022-07-06T11:24:21;30.80;43.00
15705;DHT22;7952;48.396;12.806;2022-07-06T11:26:49;30.70;43.20
15705;DHT22;7952;48.396;12.806;2022-07-06T11:29:18;30.50;43.30
15705;DHT22;7952;48.396;12.806;2022-07-06T11:31:45;30.30;43.40
15705;DHT22;7952;48.396;12.806;2022-07-06T11:34:13;30.20;43.50
15705;DHT22;7952;48.396;12.806;2022-07-06T11:36:42;30.10;43.70
15705;DHT22;7952;48.396;12.806;2022-07-06T11:39:08;30.00;43.90
15705;DHT22;7952;48.396;12.806;2022-07-06T11:41:34;30.10;44.00
15705;DHT22;7952;48.396;12.806;2022-07-06T11:44:00;30.10;43.80
15705;DHT22;7952;48.396;12.806;2022-07-06T11:46:35;30.10;43.80
15705;DHT22;7952;48.396;12.806;2022-07-06T11:49:03;30.20;43.80
15705;DHT22;7952;48.396;12.806;2022-07-06T11:51:31;30.30;43.80
15705;DHT22;7952;48.396;12.806;2022-07-06T11:54:02;30.40;43.70
15705;DHT22;7952;48.396;12.806;2022-07-06T11:56:32;30.50;43.60
15705;DHT22;7952;48.396;12.806;2022-07-06T11:58:59;30.70;43.60
15705;DHT22;7952;48.396;12.806;2022-07-06T12:01:26;30.80;43.40
15705;DHT22;7952;48.396;12.806;2022-07-06T12:03:53;31.00;43.30
15705;DHT22;7952;48.396;12.806;2022-07-06T12:06:23;31.00;43.10
15705;DHT22;7952;48.396;12.806;2022-07-06T12:08:53;31.20;43.00
15705;DHT22;7952;48.396;12.806;2022-07-06T12:11:30;31.10;42.70
15705;DHT22;7952;48.396;12.806;2022-07-06T12:14:03;31.10;42.50
15705;DHT22;7952;48.396;12.806;2022-07-06T12:16:37;31.10;42.70
15705;DHT22;7952;48.396;12.806;2022-07-06T12:19:04;31.00;42.80
15705;DHT22;7952;48.396;12.806;2022-07-06T12:21:30;31.00;42.70
15705;DHT22;7952;48.396;12.806;2022-07-06T12:23:56;31.10;42.80
15705;DHT22;7952;48.396;12.806;2022-07-06T12:26:23;31.20;42.70
15705;DHT22;7952;48.396;12.806;2022-07-06T12:29:02;31.20;42.60
15705;DHT22;7952;48.396;12.806;2022-07-06T12:31:36;31.10;42.40
15705;DHT22;7952;48.396;12.806;2022-07-06T12:34:03;30.90;42.30
15705;DHT22;7952;48.396;12.806;2022-07-06T12:36:29;30.80;42.60
15705;DHT22;7952;48.396;12.806;2022-07-06T12:38:54;30.70;42.80
15705;DHT22;7952;48.396;12.806;2022-07-06T12:41:28;30.70;42.90
15705;DHT22;7952;48.396;12.806;2022-07-06T12:44:07;30.70;43.00
15705;DHT22;7952;48.396;12.806;2022-07-06T12:49:00;30.70;42.70
15705;DHT22;7952;48.396;12.806;2022-07-06T12:51:26;30.70;42.70
15705;DHT22;7952;48.396;12.806;2022-07-06T12:53:52;30.70;42.60
15705;DHT22;7952;48.396;12.806;2022-07-06T12:56:18;30.60;42.50
15705;DHT22;7952;48.396;12.806;2022-07-06T12:59:09;30.60;42.40
15705;DHT22;7952;48.396;12.806;2022-07-06T13:01:35;30.50;42.40
15705;DHT22;7952;48.396;12.806;2022-07-06T13:04:01;30.50;42.40
15705;DHT22;7952;48.396;12.806;2022-07-06T13:06:31;30.40;42.30
15705;DHT22;7952;48.396;12.806;2022-07-06T13:08:56;30.40;42.40
15705;DHT22;7952;48.396;12.806;2022-07-06T13:11:22;30.40;42.40
15705;DHT22;7952;48.396;12.806;2022-07-06T13:13:48;30.40;42.60
15705;DHT22;7952;48.396;12.806;2022-07-06T13:16:13;30.40;42.60
15705;DHT22;7952;48.396;12.806;2022-07-06T13:18:39;30.40;42.50
15705;DHT22;7952;48.396;12.806;2022-07-06T13:21:04;30.50;42.50
15705;DHT22;7952;48.396;12.806;2022-07-06T13:23:30;30.50;42.50
15705;DHT22;7952;48.396;12.806;2022-07-06T13:25:55;30.50;42.30
15705;DHT22;7952;48.396;12.806;2022-07-06T13:28:21;30.50;42.20
15705;DHT22;7952;48.396;12.806;2022-07-06T13:30:46;30.40;42.20
15705;DHT22;7952;48.396;12.806;2022-07-06T13:33:12;30.30;42.20
15705;DHT22;7952;48.396;12.806;2022-07-06T13:35:37;30.10;42.30
15705;DHT22;7952;48.396;12.806;2022-07-06T13:38:03;29.90;42.60
15705;DHT22;7952;48.396;12.806;2022-07-06T13:40:28;29.80;42.70
15705;DHT22;7952;48.396;12.806;2022-07-06T13:42:54;29.70;42.80
15705;DHT22;7952;48.396;12.806;2022-07-06T13:45:20;29.60;42.90
15705;DHT22;7952;48.396;12.806;2022-07-06T13:47:45;29.60;43.00
15705;DHT22;7952;48.396;12.806;2022-07-06T13:50:11;29.60;43.00
15705;DHT22;7952;48.396;12.806;2022-07-06T13:52:36;29.50;43.00
15705;DHT22;7952;48.396;12.806;2022-07-06T13:55:03;29.60;43.00
15705;DHT22;7952;48.396;12.806;2022-07-06T13:57:29;29.70;43.00
15705;DHT22;7952;48.396;12.806;2022-07-06T13:59:54;29.70;42.80
15705;DHT22;7952;48.396;12.806;2022-07-06T14:02:20;29.70;42.80
15705;DHT22;7952;48.396;12.806;2022-07-06T14:04:45;29.60;42.70
15705;DHT22;7952;48.396;12.806;2022-07-06T14:07:12;29.50;42.80
15705;DHT22;7952;48.396;12.806;2022-07-06T14:09:37;29.50;42.90
15705;DHT22;7952;48.396;12.806;2022-07-06T14:12:03;29.40;42.70
15705;DHT22;7952;48.396;12.806;2022-07-06T14:14:29;29.30;42.80
15705;DHT22;7952;48.396;12.806;2022-07-06T14:16:55;29.30;42.90
15705;DHT22;7952;48.396;12.806;2022-07-06T14:19:21;29.30;43.00
15705;DHT22;7952;48.396;12.806;2022-07-06T14:21:48;29.30;43.00
15705;DHT22;7952;48.396;12.806;2022-07-06T14:24:14;29.40;43.00
15705;DHT22;7952;48.396;12.806;2022-07-06T14:26:40;29.40;43.00
15705;DHT22;7952;48.396;12.806;2022-07-06T14:29:05;29.50;43.00
15705;DHT22;7952;48.396;12.806;2022-07-06T14:31:31;29.50;42.90
15705;DHT22;7952;48.396;12.806;2022-07-06T14:33:56;29.60;42.80
15705;DHT22;7952;48.396;12.806;2022-07-06T14:36:22;29.60;42.70
15705;DHT22;7952;48.396;12.806;2022-07-06T14:38:48;29.60;42.70
15705;DHT22;7952;48.396;12.806;2022-07-06T14:41:14;29.60;42.70
15705;DHT22;7952;48.396;12.806;2022-07-06T14:43:39;29.60;43.40
15705;DHT22;7952;48.396;12.806;2022-07-06T14:46:05;29.50;42.70
15705;DHT22;7952;48.396;12.806;2022-07-06T14:48:31;29.50;42.70
15705;DHT22;7952;48.396;12.806;2022-07-06T14:50:56;29.40;42.70
15705;DHT22;7952;48.396;12.806;2022-07-06T14:53:23;29.20;42.70
15705;DHT22;7952;48.396;12.806;2022-07-06T14:55:48;29.10;42.90
15705;DHT22;7952;48.396;12.806;2022-07-06T14:58:14;28.90;43.00
15705;DHT22;7952;48.396;12.806;2022-07-06T15:00:43;28.80;43.10
15705;DHT22;7952;48.396;12.806;2022-07-06T15:03:09;28.70;43.20
15705;DHT22;7952;48.396;12.806;2022-07-06T15:05:36;28.60;43.30
15705;DHT22;7952;48.396;12.806;2022-07-06T15:08:01;28.50;43.30
15705;DHT22;7952;48.396;12.806;2022-07-06T15:10:27;28.30;43.20
15705;DHT22;7952;48.396;12.806;2022-07-06T15:12:52;28.20;43.40
15705;DHT22;7952;48.396;12.806;2022-07-06T15:15:18;28.20;43.50
15705;DHT22;7952;48.396;12.806;2022-07-06T15:17:44;28.10;43.60
15705;DHT22;7952;48.396;12.806;2022-07-06T15:20:10;28.10;43.70
15705;DHT22;7952;48.396;12.806;2022-07-06T15:22:37;28.10;43.70
15705;DHT22;7952;48.396;12.806;2022-07-06T15:25:03;28.20;43.70
15705;DHT22;7952;48.396;12.806;2022-07-06T15:27:28;28.20;43.60
15705;DHT22;7952;48.396;12.806;2022-07-06T15:29:55;28.20;43.50
15705;DHT22;7952;48.396;12.806;2022-07-06T15:32:21;28.20;43.50
15705;DHT22;7952;48.396;12.806;2022-07-06T15:34:47;28.30;43.50
15705;DHT22;7952;48.396;12.806;2022-07-06T15:37:13;28.20;43.40
15705;DHT22;7952;48.396;12.806;2022-07-06T15:39:39;28.20;43.40
15705;DHT22;7952;48.396;12.806;2022-07-06T15:42:05;28.20;43.40